sensor_id;sensor_type;location;lat;lon;timestamp;temperature;humidity
17399;DHT22;8817;48.170;8.592;2022-12-01T00:00:31;9.50;56.00
17399;DHT22;8817;48.170;8.592;2022-12-01T00:02:59;9.50;56.00
17399;DHT22;8817;48.170;8.592;2022-12-01T00:05:26;9.40;56.00
17399;DHT22;8817;48.170;8.592;2022-12-01T00:07:53;9.40;56.00
17399;DHT22;8817;48.170;8.592;2022-12-01T00:10:21;9.40;56.00
17399;DHT22;8817;48.170;8.592;2022-12-01T00:12:50;9.40;56.00
17399;DHT22;8817;48.170;8.592;2022-12-01T00:15:17;9.40;56.00
17399;DHT22;8817;48.170;8.592;2022-12-01T00:17:44;9.40;56.00
17399;DHT22;8817;48.170;8.592;2022-12-01T00:20:14;9.40;56.00
17399;DHT22;8817;48.170;8.592;2022-12-01T00:22:42;9.30;56.00
17399;DHT22;8817;48.170;8.592;2022-12-01T00:25:09;9.30;56.00
17399;DHT22;8817;48.170;8.592;2022-12-01T00:27:36;9.30;56.00
17399;DHT22;8817;48.170;8.592;2022-12-01T00:30:04;9.30;56.00
17399;DHT22;8817;48.170;8.592;2022-12-01T00:32:31;9.30;56.00
17399;DHT22;8817;48.170;8.592;2022-12-01T00:34:58;9.30;55.90
17399;DHT22;8817;48.170;8.592;2022-12-01T00:37:28;9.30;56.00
17399;DHT22;8817;48.170;8.592;2022-12-01T00:39:55;9.30;56.00
17399;DHT22;8817;48.170;8.592;2022-12-01T00:42:22;9.30;56.10
17399;DHT22;8817;48.170;8.592;2022-12-01T00:44:49;9.20;56.00
17399;DHT22;8817;48.170;8.592;2022-12-01T00:47:16;9.20;56.00
17399;DHT22;8817;48.170;8.592;2022-12-01T00:49:43;9.20;56.00
17399;DHT22;8817;48.170;8.592;2022-12-01T00:52:10;9.20;56.00
17399;DHT22;8817;48.170;8.592;2022-12-01T00:54:39;9.20;56.10
17399;DHT22;8817;48.170;8.592;2022-12-01T00:57:06;9.20;56.00
17399;DHT22;8817;48.170;8.592;2022-12-01T00:59:34;9.30;56.10
17399;DHT22;8817;48.170;8.592;2022-12-01T01:02:01;9.20;56.00
17399;DHT22;8817;48.170;8.592;2022-12-01T01:04:28;9.30;56.10
17399;DHT22;8817;48.170;8.592;2022-12-01T01:06:55;9.20;56.10
17399;DHT22;8817;48.170;8.592;2022-12-01T01:09:22;9.30;56.10
17399;DHT22;8817;48.170;8.592;2022-12-01T01:11:51;9.30;56.10
17399;DHT22;8817;48.170;8.592;2022-12-01T01:14:19;9.20;56.00
17399;DHT22;8817;48.170;8.592;2022-12-01T01:16:46;9.20;56.00
17399;DHT22;8817;48.170;8.592;2022-12-01T01:19:13;9.20;56.00
17399;DHT22;8817;48.170;8.592;2022-12-01T01:21:40;9.20;56.00
17399;DHT22;8817;48.170;8.592;2022-12-01T01:24:07;9.20;56.00
17399;DHT22;8817;48.170;8.592;2022-12-01T01:26:34;9.20;56.00
17399;DHT22;8817;48.170;8.592;2022-12-01T01:29:04;9.20;56.00
17399;DHT22;8817;48.170;8.592;2022-12-01T01:31:32;9.20;56.00
17399;DHT22;8817;48.170;8.592;2022-12-01T01:34:00;9.20;56.00
17399;DHT22;8817;48.170;8.592;2022-12-01T01:36:27;9.20;56.00
17399;DHT22;8817;48.170;8.592;2022-12-01T01:38:54;9.20;56.10
17399;DHT22;8817;48.170;8.592;2022-12-01T01:41:22;9.20;56.10
17399;DHT22;8817;48.170;8.592;2022-12-01T01:43:50;9.20;56.70
17399;DHT22;8817;48.170;8.592;2022-12-01T01:46:20;9.20;56.10
17399;DHT22;8817;48.170;8.592;2022-12-01T01:48:51;9.20;56.00
17399;DHT22;8817;48.170;8.592;2022-12-01T01:51:22;9.20;56.00
17399;DHT22;8817;48.170;8.592;2022-12-01T01:53:52;9.20;56.00
17399;DHT22;8817;48.170;8.592;2022-12-01T01:56:21;9.20;56.00
17399;DHT22;8817;48.170;8.592;2022-12-01T01:58:48;9.20;56.00
17399;DHT22;8817;48.170;8.592;2022-12-01T02:01:16;9.20;56.00
17399;DHT22;8817;48.170;8.592;2022-12-01T02:03:45;9.20;56.00
17399;DHT22;8817;48.170;8.592;2022-12-01T02:06:13;9.20;56.00
17399;DHT22;8817;48.170;8.592;2022-12-01T02:08:40;9.20;56.00
17399;DHT22;8817;48.170;8.592;2022-12-01T02:11:30;9.20;56.00
17399;DHT22;8817;48.170;8.592;2022-12-01T02:14:07;9.20;56.00
17399;DHT22;8817;48.170;8.592;2022-12-01T02:16:43;9.20;56.00
17399;DHT22;8817;48.170;8.592;2022-12-01T02:19:31;9.20;56.00
17399;DHT22;8817;48.170;8.592;2022-12-01T02:22:17;9.10;55.90
17399;DHT22;8817;48.170;8.592;2022-12-01T02:24:57;9.20;55.90
17399;DHT22;8817;48.170;8.592;2022-12-01T02:27:37;9.20;55.90
17399;DHT22;8817;48.170;8.592;2022-12-01T02:30:10;9.20;55.90
17399;DHT22;8817;48.170;8.592;2022-12-01T02:33:01;9.10;55.90
17399;DHT22;8817;48.170;8.592;2022-12-01T02:35:34;9.10;55.90
17399;DHT22;8817;48.170;8.592;2022-12-01T02:38:10;9.10;55.90
17399;DHT22;8817;48.170;8.592;2022-12-01T02:40:42;9.10;55.90
17399;DHT22;8817;48.170;8.592;2022-12-01T02:43:16;9.10;55.90
17399;DHT22;8817;48.170;8.592;2022-12-01T02:45:50;9.10;55.90
17399;DHT22;8817;48.170;8.592;2022-12-01T02:48:24;9.10;55.90
17399;DHT22;8817;48.170;8.592;2022-12-01T02:50:53;9.10;55.90
17399;DHT22;8817;48.170;8.592;2022-12-01T02:53:20;9.10;55.90
17399;DHT22;8817;48.170;8.592;2022-12-01T02:55:50;9.10;55.90
17399;DHT22;8817;48.170;8.592;2022-12-01T02:58:17;9.10;55.90
17399;DHT22;8817;48.170;8.592;2022-12-01T03:00:53;9.10;55.90
17399;DHT22;8817;48.170;8.592;2022-12-01T03:03:39;9.00;55.90
17399;DHT22;8817;48.170;8.592;2022-12-01T03:06:13;9.00;55.90
17399;DHT22;8817;48.170;8.592;2022-12-01T03:08:51;9.00;55.90
17399;DHT22;8817;48.170;8.592;2022-12-01T03:11:26;9.10;55.90
17399;DHT22;8817;48.170;8.592;2022-12-01T03:14:04;9.00;55.80
17399;DHT22;8817;48.170;8.592;2022-12-01T03:16:39;9.00;55.80
17399;DHT22;8817;48.170;8.592;2022-12-01T03:19:13;9.00;55.80
17399;DHT22;8817;48.170;8.592;2022-12-01T03:21:45;9.00;55.70
17399;DHT22;8817;48.170;8.592;2022-12-01T03:24:16;9.00;55.80
17399;DHT22;8817;48.170;8.592;2022-12-01T03:26:47;9.00;55.70
17399;DHT22;8817;48.170;8.592;2022-12-01T03:29:20;9.00;55.70
17399;DHT22;8817;48.170;8.592;2022-12-01T03:31:52;9.00;55.70
17399;DHT22;8817;48.170;8.592;2022-12-01T03:34:26;9.00;55.70
17399;DHT22;8817;48.170;8.592;2022-12-01T03:36:59;9.00;55.70
17399;DHT22;8817;48.170;8.592;2022-12-01T03:39:30;8.90;55.70
17399;DHT22;8817;48.170;8.592;2022-12-01T03:42:02;8.90;55.60
17399;DHT22;8817;48.170;8.592;2022-12-01T03:44:35;8.90;55.60
17399;DHT22;8817;48.170;8.592;2022-12-01T03:47:06;8.90;55.60
17399;DHT22;8817;48.170;8.592;2022-12-01T03:49:37;8.90;55.60
17399;DHT22;8817;48.170;8.592;2022-12-01T03:52:12;8.90;55.60
17399;DHT22;8817;48.170;8.592;2022-12-01T03:54:45;8.80;55.50
17399;DHT22;8817;48.170;8.592;2022-12-01T03:57:18;8.80;55.60
17399;DHT22;8817;48.170;8.592;2022-12-01T03:59:47;8.80;55.60
17399;DHT22;8817;48.170;8.592;2022-12-01T04:02:15;8.80;55.60
17399;DHT22;8817;48.170;8.592;2022-12-01T04:04:44;8.80;55.60
17399;DHT22;8817;48.170;8.592;2022-12-01T04:07:11;8.80;55.70
17399;DHT22;8817;48.170;8.592;2022-12-01T04:09:39;8.80;55.70
17399;DHT22;8817;48.170;8.592;2022-12-01T04:12:08;8.80;55.70
17399;DHT22;8817;48.170;8.592;2022-12-01T04:14:55;8.80;55.60
17399;DHT22;8817;48.170;8.592;2022-12-01T04:17:23;8.80;55.50
17399;DHT22;8817;48.170;8.592;2022-12-01T04:19:52;8.70;55.50
17399;DHT22;8817;48.170;8.592;2022-12-01T04:22:19;8.70;55.50
17399;DHT22;8817;48.170;8.592;2022-12-01T04:24:46;8.70;55.40
17399;DHT22;8817;48.170;8.592;2022-12-01T04:27:13;8.70;55.40
17399;DHT22;8817;48.170;8.592;2022-12-01T04:29:40;8.60;55.40
17399;DHT22;8817;48.170;8.592;2022-12-01T04:32:07;8.60;55.40
17399;DHT22;8817;48.170;8.592;2022-12-01T04:34:34;8.60;55.50
17399;DHT22;8817;48.170;8.592;2022-12-01T04:37:03;8.60;55.50
17399;DHT22;8817;48.170;8.592;2022-12-01T04:39:30;8.60;55.50
17399;DHT22;8817;48.170;8.592;2022-12-01T04:41:57;8.60;55.50
17399;DHT22;8817;48.170;8.592;2022-12-01T04:44:24;8.60;55.50
17399;DHT22;8817;48.170;8.592;2022-12-01T04:46:51;8.60;55.40
17399;DHT22;8817;48.170;8.592;2022-12-01T04:49:19;8.60;55.40
17399;DHT22;8817;48.170;8.592;2022-12-01T04:51:47;8.60;55.40
17399;DHT22;8817;48.170;8.592;2022-12-01T04:54:15;8.50;55.30
17399;DHT22;8817;48.170;8.592;2022-12-01T04:56:42;8.50;55.30
17399;DHT22;8817;48.170;8.592;2022-12-01T04:59:09;8.50;55.30
17399;DHT22;8817;48.170;8.592;2022-12-01T05:01:37;8.50;55.30
17399;DHT22;8817;48.170;8.592;2022-12-01T05:04:04;8.50;55.30
17399;DHT22;8817;48.170;8.592;2022-12-01T05:06:31;8.50;55.40
17399;DHT22;8817;48.170;8.592;2022-12-01T05:08:59;8.50;55.40
17399;DHT22;8817;48.170;8.592;2022-12-01T05:11:29;8.50;55.40
17399;DHT22;8817;48.170;8.592;2022-12-01T05:13:56;8.50;55.40
17399;DHT22;8817;48.170;8.592;2022-12-01T05:16:25;8.50;55.30
17399;DHT22;8817;48.170;8.592;2022-12-01T05:18:54;8.50;55.30
17399;DHT22;8817;48.170;8.592;2022-12-01T05:21:43;8.50;55.30
17399;DHT22;8817;48.170;8.592;2022-12-01T05:24:10;8.50;55.40
17399;DHT22;8817;48.170;8.592;2022-12-01T05:26:40;8.50;55.30
17399;DHT22;8817;48.170;8.592;2022-12-01T05:29:09;8.50;55.30
17399;DHT22;8817;48.170;8.592;2022-12-01T05:31:36;8.50;55.40
17399;DHT22;8817;48.170;8.592;2022-12-01T05:34:04;8.50;55.40
17399;DHT22;8817;48.170;8.592;2022-12-01T05:36:31;8.50;55.40
17399;DHT22;8817;48.170;8.592;2022-12-01T05:38:58;8.50;55.40
17399;DHT22;8817;48.170;8.592;2022-12-01T05:41:25;8.50;55.40
17399;DHT22;8817;48.170;8.592;2022-12-01T05:43:53;8.50;55.40
17399;DHT22;8817;48.170;8.592;2022-12-01T05:46:20;8.50;55.40
17399;DHT22;8817;48.170;8.592;2022-12-01T05:48:47;8.50;55.50
17399;DHT22;8817;48.170;8.592;2022-12-01T05:51:15;8.50;55.40
17399;DHT22;8817;48.170;8.592;2022-12-01T05:53:43;8.50;55.40
17399;DHT22;8817;48.170;8.592;2022-12-01T05:56:10;8.50;55.40
17399;DHT22;8817;48.170;8.592;2022-12-01T05:58:37;8.50;55.30
17399;DHT22;8817;48.170;8.592;2022-12-01T06:01:05;8.50;55.30
17399;DHT22;8817;48.170;8.592;2022-12-01T06:03:32;8.50;55.40
17399;DHT22;8817;48.170;8.592;2022-12-01T06:05:59;8.50;55.20
17399;DHT22;8817;48.170;8.592;2022-12-01T06:08:26;8.50;55.60
17399;DHT22;8817;48.170;8.592;2022-12-01T06:10:53;8.50;55.30
17399;DHT22;8817;48.170;8.592;2022-12-01T06:13:20;8.50;55.30
17399;DHT22;8817;48.170;8.592;2022-12-01T06:15:55;8.50;55.20
17399;DHT22;8817;48.170;8.592;2022-12-01T06:18:25;8.40;55.20
17399;DHT22;8817;48.170;8.592;2022-12-01T06:20:52;8.40;55.20
17399;DHT22;8817;48.170;8.592;2022-12-01T06:23:19;8.40;55.20
17399;DHT22;8817;48.170;8.592;2022-12-01T06:25:46;8.40;55.20
17399;DHT22;8817;48.170;8.592;2022-12-01T06:28:14;8.40;55.30
17399;DHT22;8817;48.170;8.592;2022-12-01T06:30:41;8.40;55.20
17399;DHT22;8817;48.170;8.592;2022-12-01T06:33:08;8.40;55.20
17399;DHT22;8817;48.170;8.592;2022-12-01T06:35:36;8.40;55.30
17399;DHT22;8817;48.170;8.592;2022-12-01T06:38:03;8.40;55.30
17399;DHT22;8817;48.170;8.592;2022-12-01T06:40:30;8.40;55.30
17399;DHT22;8817;48.170;8.592;2022-12-01T06:42:59;8.40;55.30
17399;DHT22;8817;48.170;8.592;2022-12-01T06:45:27;8.40;55.30
17399;DHT22;8817;48.170;8.592;2022-12-01T06:47:54;8.40;55.20
17399;DHT22;8817;48.170;8.592;2022-12-01T06:50:21;8.40;55.20
17399;DHT22;8817;48.170;8.592;2022-12-01T06:52:49;8.40;55.70
17399;DHT22;8817;48.170;8.592;2022-12-01T06:55:17;8.40;55.20
17399;DHT22;8817;48.170;8.592;2022-12-01T06:57:44;8.40;55.20
17399;DHT22;8817;48.170;8.592;2022-12-01T07:00:12;8.40;55.20
17399;DHT22;8817;48.170;8.592;2022-12-01T07:02:39;8.40;55.20
17399;DHT22;8817;48.170;8.592;2022-12-01T07:05:07;8.40;55.30
17399;DHT22;8817;48.170;8.592;2022-12-01T07:07:35;8.30;55.20
17399;DHT22;8817;48.170;8.592;2022-12-01T07:10:05;8.40;55.30
17399;DHT22;8817;48.170;8.592;2022-12-01T07:12:32;8.40;55.20
17399;DHT22;8817;48.170;8.592;2022-12-01T07:14:59;8.30;55.20
17399;DHT22;8817;48.170;8.592;2022-12-01T07:17:26;8.40;55.20
17399;DHT22;8817;48.170;8.592;2022-12-01T07:19:54;8.30;55.10
17399;DHT22;8817;48.170;8.592;2022-12-01T07:22:21;8.30;55.20
17399;DHT22;8817;48.170;8.592;2022-12-01T07:24:48;8.40;55.30
17399;DHT22;8817;48.170;8.592;2022-12-01T07:27:16;8.40;55.30
17399;DHT22;8817;48.170;8.592;2022-12-01T07:29:43;8.40;55.30
17399;DHT22;8817;48.170;8.592;2022-12-01T07:32:11;8.30;55.20
17399;DHT22;8817;48.170;8.592;2022-12-01T07:34:37;8.30;55.20
17399;DHT22;8817;48.170;8.592;2022-12-01T07:37:04;8.30;55.20
17399;DHT22;8817;48.170;8.592;2022-12-01T07:39:31;8.30;55.10
17399;DHT22;8817;48.170;8.592;2022-12-01T07:41:58;8.30;55.10
17399;DHT22;8817;48.170;8.592;2022-12-01T07:44:27;8.40;55.20
17399;DHT22;8817;48.170;8.592;2022-12-01T07:46:54;8.30;55.10
17399;DHT22;8817;48.170;8.592;2022-12-01T07:49:20;8.30;55.20
17399;DHT22;8817;48.170;8.592;2022-12-01T07:51:47;8.30;55.20
17399;DHT22;8817;48.170;8.592;2022-12-01T07:54:14;8.30;55.20
17399;DHT22;8817;48.170;8.592;2022-12-01T07:56:44;8.40;55.30
17399;DHT22;8817;48.170;8.592;2022-12-01T07:59:11;8.30;55.20
17399;DHT22;8817;48.170;8.592;2022-12-01T08:01:39;8.40;55.30
17399;DHT22;8817;48.170;8.592;2022-12-01T08:04:07;8.40;55.30
17399;DHT22;8817;48.170;8.592;2022-12-01T08:06:33;8.40;55.30
17399;DHT22;8817;48.170;8.592;2022-12-01T08:09:00;8.40;55.30
17399;DHT22;8817;48.170;8.592;2022-12-01T08:11:28;8.40;55.30
17399;DHT22;8817;48.170;8.592;2022-12-01T08:13:55;8.40;55.30
17399;DHT22;8817;48.170;8.592;2022-12-01T08:16:23;8.40;55.30
17399;DHT22;8817;48.170;8.592;2022-12-01T08:18:52;8.40;55.30
17399;DHT22;8817;48.170;8.592;2022-12-01T08:21:20;8.40;55.30
17399;DHT22;8817;48.170;8.592;2022-12-01T08:23:51;8.40;55.30
17399;DHT22;8817;48.170;8.592;2022-12-01T08:26:19;8.40;55.30
17399;DHT22;8817;48.170;8.592;2022-12-01T08:28:46;8.40;55.30
17399;DHT22;8817;48.170;8.592;2022-12-01T08:31:15;8.50;55.30
17399;DHT22;8817;48.170;8.592;2022-12-01T08:33:42;8.50;55.30
17399;DHT22;8817;48.170;8.592;2022-12-01T08:36:11;8.50;55.30
17399;DHT22;8817;48.170;8.592;2022-12-01T08:38:38;8.50;55.30
17399;DHT22;8817;48.170;8.592;2022-12-01T08:41:07;8.40;55.20
17399;DHT22;8817;48.170;8.592;2022-12-01T08:43:34;8.50;55.20
17399;DHT22;8817;48.170;8.592;2022-12-01T08:46:05;8.50;55.30
17399;DHT22;8817;48.170;8.592;2022-12-01T08:48:32;8.50;55.20
17399;DHT22;8817;48.170;8.592;2022-12-01T08:51:03;8.50;55.20
17399;DHT22;8817;48.170;8.592;2022-12-01T08:53:33;8.50;55.30
17399;DHT22;8817;48.170;8.592;2022-12-01T08:56:02;8.50;55.20
17399;DHT22;8817;48.170;8.592;2022-12-01T08:58:29;8.50;55.20
17399;DHT22;8817;48.170;8.592;2022-12-01T09:01:04;8.50;55.20
17399;DHT22;8817;48.170;8.592;2022-12-01T09:03:32;8.40;55.20
17399;DHT22;8817;48.170;8.592;2022-12-01T09:06:04;8.50;55.20
17399;DHT22;8817;48.170;8.592;2022-12-01T09:08:33;8.50;55.30
17399;DHT22;8817;48.170;8.592;2022-12-01T09:11:02;8.50;55.30
17399;DHT22;8817;48.170;8.592;2022-12-01T09:13:29;8.50;55.20
17399;DHT22;8817;48.170;8.592;2022-12-01T09:15:58;8.50;55.20
17399;DHT22;8817;48.170;8.592;2022-12-01T09:18:25;8.50;55.20
17399;DHT22;8817;48.170;8.592;2022-12-01T09:20:53;8.50;55.20
17399;DHT22;8817;48.170;8.592;2022-12-01T09:23:20;8.50;55.20
17399;DHT22;8817;48.170;8.592;2022-12-01T09:25:50;8.50;55.20
17399;DHT22;8817;48.170;8.592;2022-12-01T09:28:17;8.50;55.30
17399;DHT22;8817;48.170;8.592;2022-12-01T09:30:44;8.50;55.30
17399;DHT22;8817;48.170;8.592;2022-12-01T09:33:12;8.50;55.30
17399;DHT22;8817;48.170;8.592;2022-12-01T09:35:39;8.50;55.30
17399;DHT22;8817;48.170;8.592;2022-12-01T09:38:06;8.50;55.20
17399;DHT22;8817;48.170;8.592;2022-12-01T09:40:35;8.50;55.30
17399;DHT22;8817;48.170;8.592;2022-12-01T09:43:10;8.50;55.20
17399;DHT22;8817;48.170;8.592;2022-12-01T09:45:40;8.50;55.10
17399;DHT22;8817;48.170;8.592;2022-12-01T09:48:21;8.50;55.20
17399;DHT22;8817;48.170;8.592;2022-12-01T09:50:50;8.50;55.20
17399;DHT22;8817;48.170;8.592;2022-12-01T09:53:20;8.50;55.20
17399;DHT22;8817;48.170;8.592;2022-12-01T09:55:48;8.50;55.20
17399;DHT22;8817;48.170;8.592;2022-12-01T09:58:18;8.50;55.20
17399;DHT22;8817;48.170;8.592;2022-12-01T10:00:48;8.50;55.20
17399;DHT22;8817;48.170;8.592;2022-12-01T10:03:23;8.50;55.10
17399;DHT22;8817;48.170;8.592;2022-12-01T10:05:55;8.50;55.10
17399;DHT22;8817;48.170;8.592;2022-12-01T10:08:26;8.50;55.10
17399;DHT22;8817;48.170;8.592;2022-12-01T10:10:58;8.50;55.20
17399;DHT22;8817;48.170;8.592;2022-12-01T10:13:28;8.50;55.20
17399;DHT22;8817;48.170;8.592;2022-12-01T10:16:03;8.50;55.20
17399;DHT22;8817;48.170;8.592;2022-12-01T10:18:39;8.50;55.20
17399;DHT22;8817;48.170;8.592;2022-12-01T10:21:13;8.40;55.10
17399;DHT22;8817;48.170;8.592;2022-12-01T10:24:06;8.40;55.10
17399;DHT22;8817;48.170;8.592;2022-12-01T10:26:43;8.40;55.20
17399;DHT22;8817;48.170;8.592;2022-12-01T10:29:25;8.40;55.20
17399;DHT22;8817;48.170;8.592;2022-12-01T10:31:54;8.40;55.20
17399;DHT22;8817;48.170;8.592;2022-12-01T10:34:24;8.40;55.20
17399;DHT22;8817;48.170;8.592;2022-12-01T10:36:52;8.40;55.20
17399;DHT22;8817;48.170;8.592;2022-12-01T10:39:24;8.40;55.30
17399;DHT22;8817;48.170;8.592;2022-12-01T10:42:04;8.40;55.20
17399;DHT22;8817;48.170;8.592;2022-12-01T10:44:34;8.40;55.20
17399;DHT22;8817;48.170;8.592;2022-12-01T10:47:01;8.50;55.30
17399;DHT22;8817;48.170;8.592;2022-12-01T10:49:36;8.40;55.20
17399;DHT22;8817;48.170;8.592;2022-12-01T10:52:04;8.50;55.30
17399;DHT22;8817;48.170;8.592;2022-12-01T10:54:33;8.50;55.30
17399;DHT22;8817;48.170;8.592;2022-12-01T10:57:01;8.50;55.90
17399;DHT22;8817;48.170;8.592;2022-12-01T10:59:33;8.50;55.30
17399;DHT22;8817;48.170;8.592;2022-12-01T11:02:01;8.50;55.30
17399;DHT22;8817;48.170;8.592;2022-12-01T11:04:35;8.50;55.30
17399;DHT22;8817;48.170;8.592;2022-12-01T11:07:14;8.50;56.00
17399;DHT22;8817;48.170;8.592;2022-12-01T11:09:44;8.50;55.30
17399;DHT22;8817;48.170;8.592;2022-12-01T11:12:15;8.50;55.20
17399;DHT22;8817;48.170;8.592;2022-12-01T11:14:49;8.50;55.10
17399;DHT22;8817;48.170;8.592;2022-12-01T11:17:26;8.50;55.10
17399;DHT22;8817;48.170;8.592;2022-12-01T11:19:54;8.50;55.80
17399;DHT22;8817;48.170;8.592;2022-12-01T11:22:22;8.50;55.20
17399;DHT22;8817;48.170;8.592;2022-12-01T11:24:58;8.40;55.10
17399;DHT22;8817;48.170;8.592;2022-12-01T11:27:28;8.40;55.20
17399;DHT22;8817;48.170;8.592;2022-12-01T11:29:59;8.40;55.20
17399;DHT22;8817;48.170;8.592;2022-12-01T11:32:30;8.40;55.20
17399;DHT22;8817;48.170;8.592;2022-12-01T11:35:00;8.40;55.20
17399;DHT22;8817;48.170;8.592;2022-12-01T11:37:30;8.40;55.20
17399;DHT22;8817;48.170;8.592;2022-12-01T11:40:06;8.50;55.30
17399;DHT22;8817;48.170;8.592;2022-12-01T11:42:34;8.40;55.30
17399;DHT22;8817;48.170;8.592;2022-12-01T11:45:06;8.40;55.30
17399;DHT22;8817;48.170;8.592;2022-12-01T11:47:34;8.40;55.30
17399;DHT22;8817;48.170;8.592;2022-12-01T11:50:23;8.40;55.90
17399;DHT22;8817;48.170;8.592;2022-12-01T11:52:51;8.50;55.30
17399;DHT22;8817;48.170;8.592;2022-12-01T11:55:20;8.50;55.30
17399;DHT22;8817;48.170;8.592;2022-12-01T11:57:49;8.50;55.30
17399;DHT22;8817;48.170;8.592;2022-12-01T12:00:20;8.50;55.40
17399;DHT22;8817;48.170;8.592;2022-12-01T12:03:05;8.50;55.50
17399;DHT22;8817;48.170;8.592;2022-12-01T12:05:45;8.50;55.40
17399;DHT22;8817;48.170;8.592;2022-12-01T12:08:25;8.50;55.30
17399;DHT22;8817;48.170;8.592;2022-12-01T12:11:01;8.50;55.30
17399;DHT22;8817;48.170;8.592;2022-12-01T12:16:36;8.50;55.30
17399;DHT22;8817;48.170;8.592;2022-12-01T12:19:21;8.50;55.20
17399;DHT22;8817;48.170;8.592;2022-12-01T12:22:04;8.50;55.30
17399;DHT22;8817;48.170;8.592;2022-12-01T12:24:47;8.50;55.20
17399;DHT22;8817;48.170;8.592;2022-12-01T12:27:22;8.50;55.30
17399;DHT22;8817;48.170;8.592;2022-12-01T12:30:01;8.50;55.30
17399;DHT22;8817;48.170;8.592;2022-12-01T12:32:46;8.50;55.30
17399;DHT22;8817;48.170;8.592;2022-12-01T12:35:26;8.50;55.30
17399;DHT22;8817;48.170;8.592;2022-12-01T12:40:49;8.50;55.20
17399;DHT22;8817;48.170;8.592;2022-12-01T12:43:26;8.50;55.20
17399;DHT22;8817;48.170;8.592;2022-12-01T12:46:04;8.50;55.20
17399;DHT22;8817;48.170;8.592;2022-12-01T12:48:56;8.50;55.20
17399;DHT22;8817;48.170;8.592;2022-12-01T12:51:30;8.50;55.30
17399;DHT22;8817;48.170;8.592;2022-12-01T12:54:12;8.50;55.30
17399;DHT22;8817;48.170;8.592;2022-12-01T12:56:45;8.50;55.80
17399;DHT22;8817;48.170;8.592;2022-12-01T12:59:15;8.50;55.20
17399;DHT22;8817;48.170;8.592;2022-12-01T13:01:50;8.50;55.20
17399;DHT22;8817;48.170;8.592;2022-12-01T13:04:20;8.50;55.20
17399;DHT22;8817;48.170;8.592;2022-12-01T13:06:52;8.50;55.30
17399;DHT22;8817;48.170;8.592;2022-12-01T13:09:24;8.50;55.30
17399;DHT22;8817;48.170;8.592;2022-12-01T13:12:00;8.50;55.30
17399;DHT22;8817;48.170;8.592;2022-12-01T13:14:31;8.50;55.30
17399;DHT22;8817;48.170;8.592;2022-12-01T13:17:05;8.50;55.30
17399;DHT22;8817;48.170;8.592;2022-12-01T13:19:36;8.50;55.30
17399;DHT22;8817;48.170;8.592;2022-12-01T13:22:05;8.50;55.20
17399;DHT22;8817;48.170;8.592;2022-12-01T13:24:33;8.50;55.20
17399;DHT22;8817;48.170;8.592;2022-12-01T13:27:04;8.50;55.20
17399;DHT22;8817;48.170;8.592;2022-12-01T13:29:42;8.50;55.30
17399;DHT22;8817;48.170;8.592;2022-12-01T13:32:26;8.50;55.30
17399;DHT22;8817;48.170;8.592;2022-12-01T13:34:55;8.50;55.30
17399;DHT22;8817;48.170;8.592;2022-12-01T13:37:27;8.50;55.30
17399;DHT22;8817;48.170;8.592;2022-12-01T13:39:55;8.50;55.30
17399;DHT22;8817;48.170;8.592;2022-12-01T13:42:32;8.50;55.20
17399;DHT22;8817;48.170;8.592;2022-12-01T13:45:01;8.50;55.20
17399;DHT22;8817;48.170;8.592;2022-12-01T13:47:39;8.50;55.30
17399;DHT22;8817;48.170;8.592;2022-12-01T13:53:33;8.40;55.20
17399;DHT22;8817;48.170;8.592;2022-12-01T14:02:17;8.40;55.20
17399;DHT22;8817;48.170;8.592;2022-12-01T14:04:45;8.40;55.20
17399;DHT22;8817;48.170;8.592;2022-12-01T14:07:32;8.40;55.20
17399;DHT22;8817;48.170;8.592;2022-12-01T14:10:29;8.40;55.20
17399;DHT22;8817;48.170;8.592;2022-12-01T14:13:00;8.30;55.20
17399;DHT22;8817;48.170;8.592;2022-12-01T14:15:37;8.30;55.20
17399;DHT22;8817;48.170;8.592;2022-12-01T14:18:24;8.30;55.20
17399;DHT22;8817;48.170;8.592;2022-12-01T14:20:52;8.30;55.30
17399;DHT22;8817;48.170;8.592;2022-12-01T14:23:24;8.30;55.30
17399;DHT22;8817;48.170;8.592;2022-12-01T14:26:19;8.30;55.30
17399;DHT22;8817;48.170;8.592;2022-12-01T14:29:24;8.30;55.40
17399;DHT22;8817;48.170;8.592;2022-12-01T14:35:14;8.30;55.30
17399;DHT22;8817;48.170;8.592;2022-12-01T14:37:45;8.30;55.40
17399;DHT22;8817;48.170;8.592;2022-12-01T14:40:27;8.40;55.40
17399;DHT22;8817;48.170;8.592;2022-12-01T14:42:58;8.40;55.40
17399;DHT22;8817;48.170;8.592;2022-12-01T14:45:52;8.30;55.30
17399;DHT22;8817;48.170;8.592;2022-12-01T14:48:24;8.30;55.30
17399;DHT22;8817;48.170;8.592;2022-12-01T14:50:57;8.30;55.30
17399;DHT22;8817;48.170;8.592;2022-12-01T14:53:32;8.30;55.30
17399;DHT22;8817;48.170;8.592;2022-12-01T14:56:09;8.30;55.40
17399;DHT22;8817;48.170;8.592;2022-12-01T14:58:38;8.30;55.30
17399;DHT22;8817;48.170;8.592;2022-12-01T15:01:16;8.40;55.40
17399;DHT22;8817;48.170;8.592;2022-12-01T15:03:46;8.30;55.30
17399;DHT22;8817;48.170;8.592;2022-12-01T15:06:16;8.30;55.90
17399;DHT22;8817;48.170;8.592;2022-12-01T15:08:44;8.30;55.30
17399;DHT22;8817;48.170;8.592;2022-12-01T15:11:19;8.30;55.30
17399;DHT22;8817;48.170;8.592;2022-12-01T15:13:49;8.30;55.30
17399;DHT22;8817;48.170;8.592;2022-12-01T15:16:19;8.30;55.40
17399;DHT22;8817;48.170;8.592;2022-12-01T15:18:47;8.30;55.30
17399;DHT22;8817;48.170;8.592;2022-12-01T15:21:18;8.30;55.40
17399;DHT22;8817;48.170;8.592;2022-12-01T15:23:53;8.30;55.40
17399;DHT22;8817;48.170;8.592;2022-12-01T15:26:22;8.30;55.40
17399;DHT22;8817;48.170;8.592;2022-12-01T15:29:03;8.30;55.30
17399;DHT22;8817;48.170;8.592;2022-12-01T15:31:31;8.30;55.30
17399;DHT22;8817;48.170;8.592;2022-12-01T15:33:58;8.30;55.30
17399;DHT22;8817;48.170;8.592;2022-12-01T15:36:25;8.30;55.30
17399;DHT22;8817;48.170;8.592;2022-12-01T15:38:52;8.30;55.30
17399;DHT22;8817;48.170;8.592;2022-12-01T15:41:21;8.30;55.20
17399;DHT22;8817;48.170;8.592;2022-12-01T15:43:55;8.30;55.20
17399;DHT22;8817;48.170;8.592;2022-12-01T15:46:26;8.30;55.30
17399;DHT22;8817;48.170;8.592;2022-12-01T15:49:06;8.30;55.30
17399;DHT22;8817;48.170;8.592;2022-12-01T15:51:33;8.20;55.30
17399;DHT22;8817;48.170;8.592;2022-12-01T15:54:01;8.30;55.30
17399;DHT22;8817;48.170;8.592;2022-12-01T15:56:29;8.30;55.30
17399;DHT22;8817;48.170;8.592;2022-12-01T15:59:05;8.30;55.30
17399;DHT22;8817;48.170;8.592;2022-12-01T16:01:33;8.20;55.30
17399;DHT22;8817;48.170;8.592;2022-12-01T16:04:03;8.30;55.30
17399;DHT22;8817;48.170;8.592;2022-12-01T16:06:33;8.30;55.40
17399;DHT22;8817;48.170;8.592;2022-12-01T16:09:02;8.20;55.30
17399;DHT22;8817;48.170;8.592;2022-12-01T16:11:29;8.30;55.40
17399;DHT22;8817;48.170;8.592;2022-12-01T16:14:00;8.20;55.30
17399;DHT22;8817;48.170;8.592;2022-12-01T16:16:36;8.30;55.30
17399;DHT22;8817;48.170;8.592;2022-12-01T16:19:21;8.20;55.30
17399;DHT22;8817;48.170;8.592;2022-12-01T16:21:50;8.20;55.30
17399;DHT22;8817;48.170;8.592;2022-12-01T16:24:20;8.30;55.40
17399;DHT22;8817;48.170;8.592;2022-12-01T16:26:54;8.20;55.30
17399;DHT22;8817;48.170;8.592;2022-12-01T16:29:25;8.20;55.30
17399;DHT22;8817;48.170;8.592;2022-12-01T16:31:53;8.20;55.80
17399;DHT22;8817;48.170;8.592;2022-12-01T16:34:22;8.20;55.30
17399;DHT22;8817;48.170;8.592;2022-12-01T16:36:49;8.20;55.30
17399;DHT22;8817;48.170;8.592;2022-12-01T16:39:16;8.20;55.30
17399;DHT22;8817;48.170;8.592;2022-12-01T16:41:43;8.20;55.30
17399;DHT22;8817;48.170;8.592;2022-12-01T16:44:11;8.20;55.30